Time;durP1;ratioP1;P1;durP2;ratioP2;P2;SDS_P1;SDS_P2;PMS_P1;PMS_P2;Temp;Humidity;BMP_temperature;BMP_pressure;BME280_temperature;BME280_humidity;BME280_pressure;Samples;Min_cycle;Max_cycle;Signal;HPM_P1;HPM_P2
2022/09/29 00:00:50;;;;;;;7.40;5.57;;;;;;;;;;5018490;28;20166;-73
2022/09/29 00:03:16;;;;;;;8.23;5.63;;;;;;;;;;5025067;28;20199;-73
2022/09/29 00:05:45;;;;;;;10.13;6.33;;;;;;;;;;5031443;28;20782;-72
2022/09/29 00:08:11;;;;;;;7.60;5.90;;;;;;;;;;5025036;28;20183;-73
2022/09/29 00:10:38;;;;;;;7.17;5.63;;;;;;;;;;5024680;28;20187;-73
2022/09/29 00:13:03;;;;;;;6.73;5.60;;;;;;;;;;5017664;28;20656;-72
2022/09/29 00:15:29;;;;;;;8.20;6.20;;;;;;;;;;5025284;28;20223;-73
2022/09/29 00:17:54;;;;;;;8.33;5.80;;;;;;;;;;5024719;28;20177;-73
2022/09/29 00:20:19;;;;;;;6.77;5.73;;;;;;;;;;5024708;28;20186;-73
2022/09/29 00:22:48;;;;;;;7.80;5.50;;;;;;;;;;5021798;28;20202;-73
2022/09/29 00:25:13;;;;;;;7.73;5.80;;;;;;;;;;5027971;28;20197;-72
2022/09/29 00:27:38;;;;;;;10.03;6.13;;;;;;;;;;5009690;28;20175;-72
2022/09/29 00:30:04;;;;;;;8.87;6.37;;;;;;;;;;5023605;28;20269;-73
2022/09/29 00:32:29;;;;;;;8.07;6.13;;;;;;;;;;5018966;28;20195;-73
2022/09/29 00:34:54;;;;;;;7.47;5.60;;;;;;;;;;5032009;28;20236;-73
2022/09/29 00:37:19;;;;;;;8.87;6.13;;;;;;;;;;5025258;28;20224;-73
2022/09/29 00:39:45;;;;;;;7.53;5.77;;;;;;;;;;5029466;28;20174;-73
2022/09/29 00:42:10;;;;;;;7.93;5.90;;;;;;;;;;5026241;28;20202;-72
2022/09/29 00:44:53;;;;;;;11.20;6.50;;;;;;;;;;5027796;28;20195;-73
2022/09/29 00:47:19;;;;;;;9.03;6.33;;;;;;;;;;5027737;28;20174;-73
2022/09/29 00:49:49;;;;;;;7.13;5.47;;;;;;;;;;5010105;28;20252;-72
2022/09/29 00:52:15;;;;;;;8.77;6.30;;;;;;;;;;5021259;28;20213;-72
2022/09/29 00:54:43;;;;;;;7.93;6.10;;;;;;;;;;5027319;28;20277;-72
2022/09/29 00:57:11;;;;;;;8.77;5.73;;;;;;;;;;5027716;28;20209;-73
2022/09/29 00:59:58;;;;;;;7.87;6.33;;;;;;;;;;5026744;28;20185;-73
2022/09/29 01:02:24;;;;;;;10.03;6.43;;;;;;;;;;5028917;28;20205;-72
2022/09/29 01:04:51;;;;;;;8.17;6.43;;;;;;;;;;5011862;28;20581;-72
2022/09/29 01:07:17;;;;;;;10.00;6.77;;;;;;;;;;5027619;28;20190;-73
2022/09/29 01:09:42;;;;;;;8.63;6.57;;;;;;;;;;5025464;28;20241;-72
2022/09/29 01:12:07;;;;;;;9.80;7.10;;;;;;;;;;5021064;28;20323;-72
2022/09/29 01:14:34;;;;;;;8.60;6.33;;;;;;;;;;5021758;28;20203;-73
2022/09/29 01:16:59;;;;;;;12.03;7.70;;;;;;;;;;5024068;28;20182;-73
2022/09/29 01:19:24;;;;;;;10.53;7.03;;;;;;;;;;5005872;28;20178;-73
2022/09/29 01:21:56;;;;;;;9.03;6.67;;;;;;;;;;5026907;28;20189;-73
2022/09/29 01:24:40;;;;;;;11.00;8.13;;;;;;;;;;5014980;28;20198;-72
2022/09/29 01:27:24;;;;;;;9.60;7.07;;;;;;;;;;5023908;28;20174;-73
2022/09/29 01:29:55;;;;;;;9.17;6.60;;;;;;;;;;5008035;28;20186;-73
2022/09/29 01:32:26;;;;;;;11.13;7.33;;;;;;;;;;5024525;28;20206;-73
2022/09/29 01:35:00;;;;;;;12.77;9.00;;;;;;;;;;5023912;28;20212;-73
2022/09/29 01:37:44;;;;;;;13.97;7.77;;;;;;;;;;5024081;28;20603;-72
2022/09/29 01:40:16;;;;;;;11.77;7.50;;;;;;;;;;5021965;28;20197;-73
2022/09/29 01:42:50;;;;;;;10.70;7.63;;;;;;;;;;5027168;28;20198;-73
2022/09/29 01:45:16;;;;;;;10.40;7.80;;;;;;;;;;5021238;28;20191;-73
2022/09/29 01:47:43;;;;;;;11.03;7.80;;;;;;;;;;5021375;28;20236;-73
2022/09/29 01:50:13;;;;;;;10.10;7.97;;;;;;;;;;5008567;28;20217;-73
2022/09/29 01:52:41;;;;;;;12.33;7.93;;;;;;;;;;5017511;28;20202;-72
2022/09/29 01:55:08;;;;;;;11.60;8.50;;;;;;;;;;5019077;28;20269;-73
2022/09/29 01:57:49;;;;;;;11.90;8.37;;;;;;;;;;5021041;28;20179;-73
2022/09/29 02:00:16;;;;;;;9.20;7.37;;;;;;;;;;5022483;28;20600;-72
2022/09/29 02:02:53;;;;;;;11.23;8.23;;;;;;;;;;5026909;28;20198;-73
2022/09/29 02:05:22;;;;;;;10.60;7.73;;;;;;;;;;5020307;28;20228;-72
2022/09/29 02:07:48;;;;;;;10.97;7.67;;;;;;;;;;5024633;28;20678;-73
2022/09/29 02:10:20;;;;;;;13.37;8.83;;;;;;;;;;5026810;28;20186;-73
2022/09/29 02:12:46;;;;;;;13.63;8.50;;;;;;;;;;5020949;28;20224;-73
2022/09/29 02:15:16;;;;;;;13.07;8.97;;;;;;;;;;5024469;28;20199;-73
2022/09/29 02:17:43;;;;;;;12.53;8.90;;;;;;;;;;5025424;28;20209;-72
2022/09/29 02:20:09;;;;;;;13.00;8.70;;;;;;;;;;5023316;28;20543;-72
2022/09/29 02:22:35;;;;;;;12.43;8.23;;;;;;;;;;5015603;28;20685;-72
2022/09/29 02:25:00;;;;;;;10.27;7.63;;;;;;;;;;5002912;28;20273;-73
2022/09/29 02:27:28;;;;;;;11.70;8.60;;;;;;;;;;5020421;28;20270;-73
2022/09/29 02:29:53;;;;;;;10.93;8.03;;;;;;;;;;5003789;28;20186;-72
2022/09/29 02:32:19;;;;;;;10.80;8.03;;;;;;;;;;5013897;28;20203;-73
2022/09/29 02:34:45;;;;;;;11.50;7.93;;;;;;;;;;5024223;28;20667;-73
2022/09/29 02:37:32;;;;;;;10.10;7.73;;;;;;;;;;5015815;28;20185;-72
2022/09/29 02:39:57;;;;;;;9.20;7.13;;;;;;;;;;5019550;28;20264;-73
2022/09/29 02:42:35;;;;;;;11.97;8.77;;;;;;;;;;5000077;28;20277;-73
2022/09/29 02:45:14;;;;;;;10.07;7.67;;;;;;;;;;5024275;28;20651;-72
2022/09/29 02:47:39;;;;;;;9.23;7.10;;;;;;;;;;5024873;28;20218;-73
2022/09/29 02:50:15;;;;;;;10.03;7.07;;;;;;;;;;5023519;28;20247;-73
2022/09/29 02:52:44;;;;;;;10.80;7.10;;;;;;;;;;5023619;28;20229;-72
2022/09/29 02:55:17;;;;;;;10.97;7.43;;;;;;;;;;5017792;28;20652;-73
2022/09/29 02:58:01;;;;;;;12.07;8.73;;;;;;;;;;5026646;28;20186;-72
2022/09/29 03:00:26;;;;;;;13.87;8.27;;;;;;;;;;5024224;28;20641;-72
2022/09/29 03:02:52;;;;;;;12.17;8.63;;;;;;;;;;5019772;28;20205;-72
2022/09/29 03:05:18;;;;;;;12.00;7.17;;;;;;;;;;5020065;28;20219;-73
2022/09/29 03:07:43;;;;;;;10.77;7.87;;;;;;;;;;5019881;28;20552;-72
2022/09/29 03:10:09;;;;;;;13.80;8.17;;;;;;;;;;5025749;28;20253;-72
2022/09/29 03:12:35;;;;;;;11.83;8.33;;;;;;;;;;5021755;28;20290;-72
2022/09/29 03:15:00;;;;;;;11.67;8.03;;;;;;;;;;5014129;28;20582;-73
2022/09/29 03:17:25;;;;;;;13.37;7.90;;;;;;;;;;5005414;28;20657;-73
2022/09/29 03:19:51;;;;;;;10.83;7.23;;;;;;;;;;5028099;28;20182;-72
2022/09/29 03:22:17;;;;;;;15.10;8.37;;;;;;;;;;5023503;28;20206;-71
2022/09/29 03:24:43;;;;;;;16.20;8.13;;;;;;;;;;5027844;28;20233;-70
2022/09/29 03:27:11;;;;;;;9.60;7.47;;;;;;;;;;5023981;28;20679;-71
2022/09/29 03:29:37;;;;;;;11.30;7.57;;;;;;;;;;5022829;28;20293;-71
2022/09/29 03:32:02;;;;;;;13.63;9.23;;;;;;;;;;5022616;28;20736;-70
2022/09/29 03:34:27;;;;;;;12.93;8.57;;;;;;;;;;5027135;28;20364;-72
2022/09/29 03:36:52;;;;;;;11.47;8.43;;;;;;;;;;5023021;28;20175;-71
2022/09/29 03:39:18;;;;;;;17.80;8.93;;;;;;;;;;5028801;28;20202;-71
2022/09/29 03:41:43;;;;;;;10.63;7.77;;;;;;;;;;5023379;28;20183;-70
2022/09/29 03:44:08;;;;;;;11.77;8.23;;;;;;;;;;5024648;28;20198;-71
2022/09/29 03:46:33;;;;;;;12.00;8.23;;;;;;;;;;5026832;28;20198;-70
2022/09/29 03:48:59;;;;;;;14.13;8.90;;;;;;;;;;5029565;28;20206;-70
2022/09/29 03:51:24;;;;;;;12.10;8.30;;;;;;;;;;5011439;28;20185;-71
2022/09/29 03:53:49;;;;;;;13.27;7.97;;;;;;;;;;5021405;28;20316;-70
2022/09/29 03:56:14;;;;;;;14.87;8.97;;;;;;;;;;5026625;28;20762;-71
2022/09/29 03:58:39;;;;;;;14.63;8.90;;;;;;;;;;5024865;28;20175;-70
2022/09/29 04:01:04;;;;;;;11.10;8.90;;;;;;;;;;5029819;28;20174;-71
2022/09/29 04:03:30;;;;;;;13.77;9.17;;;;;;;;;;5023790;28;20217;-70
2022/09/29 04:05:55;;;;;;;12.30;8.60;;;;;;;;;;5026699;28;20167;-71
2022/09/29 04:08:21;;;;;;;14.37;9.17;;;;;;;;;;5032885;28;20166;-71
2022/09/29 04:10:46;;;;;;;17.77;9.77;;;;;;;;;;5025116;28;20174;-70
2022/09/29 04:13:12;;;;;;;12.40;8.93;;;;;;;;;;5020032;28;20584;-71
2022/09/29 04:15:37;;;;;;;12.50;8.27;;;;;;;;;;5021374;28;20217;-70
2022/09/29 04:18:02;;;;;;;13.70;8.83;;;;;;;;;;5023756;28;20170;-71
2022/09/29 04:20:28;;;;;;;15.47;9.73;;;;;;;;;;5026508;28;20198;-71
2022/09/29 04:22:53;;;;;;;11.83;8.57;;;;;;;;;;5027605;28;20229;-71
2022/09/29 04:25:18;;;;;;;14.10;8.87;;;;;;;;;;5028641;28;20682;-71
2022/09/29 04:27:43;;;;;;;12.80;8.50;;;;;;;;;;5006239;28;20186;-70
2022/09/29 04:30:09;;;;;;;12.57;9.37;;;;;;;;;;5021434;28;20201;-71
2022/09/29 04:32:34;;;;;;;15.47;9.70;;;;;;;;;;5025736;28;20754;-71
2022/09/29 04:35:00;;;;;;;14.10;8.43;;;;;;;;;;5024374;28;20631;-71
2022/09/29 04:37:25;;;;;;;12.97;9.80;;;;;;;;;;5020175;28;20211;-70
2022/09/29 04:39:52;;;;;;;12.03;8.67;;;;;;;;;;5026858;28;20170;-70
2022/09/29 04:42:17;;;;;;;13.80;8.83;;;;;;;;;;5022765;28;20209;-70
2022/09/29 04:44:42;;;;;;;16.33;9.37;;;;;;;;;;5026629;28;20696;-70
2022/09/29 04:47:08;;;;;;;14.47;9.00;;;;;;;;;;5020955;28;20194;-71
2022/09/29 04:49:33;;;;;;;15.77;8.83;;;;;;;;;;5025508;28;20183;-71
2022/09/29 04:51:58;;;;;;;13.30;9.53;;;;;;;;;;5020849;28;20198;-71
2022/09/29 04:54:23;;;;;;;15.60;9.80;;;;;;;;;;5023546;28;20198;-71
2022/09/29 04:56:49;;;;;;;13.83;8.73;;;;;;;;;;5025221;28;20232;-71
2022/09/29 04:59:16;;;;;;;13.07;8.67;;;;;;;;;;5019030;28;20178;-70
2022/09/29 05:01:41;;;;;;;11.23;8.70;;;;;;;;;;5024258;28;20178;-71
2022/09/29 05:04:08;;;;;;;14.57;9.27;;;;;;;;;;5021594;28;20213;-71
2022/09/29 05:06:38;;;;;;;13.50;9.03;;;;;;;;;;5003340;28;20187;-71
2022/09/29 05:09:03;;;;;;;14.27;9.40;;;;;;;;;;5008879;28;20186;-72
2022/09/29 05:11:28;;;;;;;14.77;9.63;;;;;;;;;;5024003;28;20182;-69
2022/09/29 05:13:54;;;;;;;13.47;9.03;;;;;;;;;;5020012;28;20242;-70
2022/09/29 05:16:19;;;;;;;16.33;9.57;;;;;;;;;;5028693;28;20641;-71
2022/09/29 05:18:44;;;;;;;16.20;10.17;;;;;;;;;;5026960;28;20174;-71
2022/09/29 05:21:09;;;;;;;15.27;9.87;;;;;;;;;;5024374;28;20230;-71
2022/09/29 05:23:35;;;;;;;17.03;9.63;;;;;;;;;;5015988;28;20210;-70
2022/09/29 05:26:01;;;;;;;15.10;9.90;;;;;;;;;;5023106;28;20453;-71
2022/09/29 05:28:26;;;;;;;16.63;10.10;;;;;;;;;;5014674;28;20229;-71
2022/09/29 05:30:51;;;;;;;11.57;8.63;;;;;;;;;;5027412;28;20256;-70
2022/09/29 05:33:16;;;;;;;19.60;10.63;;;;;;;;;;5026914;28;20194;-71
2022/09/29 05:35:41;;;;;;;16.20;10.67;;;;;;;;;;5020793;28;20559;-71
2022/09/29 05:38:07;;;;;;;15.03;10.67;;;;;;;;;;5021838;28;20189;-71
2022/09/29 05:40:32;;;;;;;18.03;10.17;;;;;;;;;;5019253;28;20174;-71
2022/09/29 05:42:58;;;;;;;17.73;11.33;;;;;;;;;;5008545;28;20202;-71
2022/09/29 05:45:23;;;;;;;17.97;10.87;;;;;;;;;;5023448;28;20565;-71
2022/09/29 05:47:48;;;;;;;15.53;9.60;;;;;;;;;;5023803;28;20583;-71
2022/09/29 05:50:14;;;;;;;16.33;10.47;;;;;;;;;;5021898;28;20182;-70
2022/09/29 05:52:40;;;;;;;17.97;10.67;;;;;;;;;;5025414;28;20252;-71
2022/09/29 05:55:08;;;;;;;16.10;10.00;;;;;;;;;;5024678;28;20215;-71
2022/09/29 05:57:33;;;;;;;14.03;9.93;;;;;;;;;;5016958;28;20179;-71
2022/09/29 05:59:58;;;;;;;18.60;10.50;;;;;;;;;;5020461;28;20270;-71
2022/09/29 06:02:24;;;;;;;18.80;11.37;;;;;;;;;;5024235;28;20205;-71
2022/09/29 06:04:49;;;;;;;19.83;10.80;;;;;;;;;;5018307;28;20244;-71
2022/09/29 06:07:14;;;;;;;16.47;9.60;;;;;;;;;;5019566;28;20175;-71
2022/09/29 06:09:39;;;;;;;17.40;11.60;;;;;;;;;;5028894;28;20735;-71
2022/09/29 06:12:05;;;;;;;16.23;11.07;;;;;;;;;;5011463;28;20747;-70
2022/09/29 06:14:30;;;;;;;19.30;12.13;;;;;;;;;;5006924;28;20205;-71
2022/09/29 06:16:55;;;;;;;19.40;10.70;;;;;;;;;;5026623;28;20171;-71
2022/09/29 06:19:20;;;;;;;18.53;11.00;;;;;;;;;;5025748;28;20558;-71
2022/09/29 06:21:46;;;;;;;17.93;11.97;;;;;;;;;;5020890;28;20167;-71
2022/09/29 06:24:11;;;;;;;15.60;10.53;;;;;;;;;;5020247;28;20182;-71
2022/09/29 06:26:36;;;;;;;19.33;11.60;;;;;;;;;;5003762;28;20573;-71
2022/09/29 06:29:01;;;;;;;17.77;11.93;;;;;;;;;;5018812;28;20185;-71
2022/09/29 06:31:28;;;;;;;17.30;11.60;;;;;;;;;;5019190;28;20186;-71
2022/09/29 06:34:03;;;;;;;21.93;13.97;;;;;;;;;;5022333;28;20190;-71
2022/09/29 06:39:17;;;;;;;19.93;12.97;;;;;;;;;;5022439;28;20190;-71
2022/09/29 06:41:53;;;;;;;22.20;13.80;;;;;;;;;;5012229;28;20166;-71
2022/09/29 06:44:19;;;;;;;21.73;13.53;;;;;;;;;;5021565;28;20183;-71
2022/09/29 06:46:45;;;;;;;23.93;16.17;;;;;;;;;;5018816;28;20185;-71
2022/09/29 06:49:11;;;;;;;22.70;14.40;;;;;;;;;;5020968;28;20179;-71
2022/09/29 06:51:37;;;;;;;27.30;16.20;;;;;;;;;;5005082;28;20186;-71
2022/09/29 06:54:02;;;;;;;25.33;15.40;;;;;;;;;;5022391;28;20202;-72
2022/09/29 06:56:28;;;;;;;25.30;16.30;;;;;;;;;;5021048;28;20179;-71
2022/09/29 06:58:54;;;;;;;25.90;16.60;;;;;;;;;;5022525;28;20178;-71
2022/09/29 07:01:19;;;;;;;24.80;16.80;;;;;;;;;;5016329;28;20171;-71
2022/09/29 07:03:44;;;;;;;26.07;17.47;;;;;;;;;;5020374;28;20244;-71
2022/09/29 07:06:10;;;;;;;27.70;16.90;;;;;;;;;;5023966;28;20258;-72
2022/09/29 07:08:37;;;;;;;28.33;17.50;;;;;;;;;;5021420;28;20209;-72
2022/09/29 07:11:03;;;;;;;24.70;17.33;;;;;;;;;;5010894;28;20188;-72
2022/09/29 07:13:29;;;;;;;26.90;17.03;;;;;;;;;;5026435;28;20198;-72
2022/09/29 07:15:54;;;;;;;24.40;17.17;;;;;;;;;;5019720;28;20561;-72
2022/09/29 07:18:19;;;;;;;25.27;17.43;;;;;;;;;;5009099;28;20186;-72
2022/09/29 07:20:45;;;;;;;26.73;17.27;;;;;;;;;;5022987;28;20209;-72
2022/09/29 07:23:10;;;;;;;27.50;18.70;;;;;;;;;;5020501;28;20672;-72
2022/09/29 07:25:35;;;;;;;25.10;18.20;;;;;;;;;;5007777;28;20186;-72
2022/09/29 07:28:01;;;;;;;24.37;17.87;;;;;;;;;;5017977;28;20179;-72
2022/09/29 07:30:26;;;;;;;22.80;16.83;;;;;;;;;;5025070;28;20183;-72
2022/09/29 07:32:52;;;;;;;19.63;15.83;;;;;;;;;;5018810;28;20198;-72
2022/09/29 07:35:18;;;;;;;22.13;16.80;;;;;;;;;;5025808;28;20314;-72
2022/09/29 07:37:49;;;;;;;21.07;15.43;;;;;;;;;;5020708;28;20257;-71
2022/09/29 07:40:14;;;;;;;17.47;14.63;;;;;;;;;;5024835;28;20179;-71
2022/09/29 07:42:39;;;;;;;22.07;14.90;;;;;;;;;;5026635;28;20198;-72
2022/09/29 07:45:05;;;;;;;20.17;14.47;;;;;;;;;;5025241;28;20185;-72
2022/09/29 07:47:30;;;;;;;16.47;12.90;;;;;;;;;;5029966;28;20178;-72
2022/09/29 07:49:55;;;;;;;15.83;12.37;;;;;;;;;;5023447;28;20278;-72
2022/09/29 07:52:21;;;;;;;16.33;13.73;;;;;;;;;;5028305;28;20206;-72
2022/09/29 07:54:46;;;;;;;15.23;13.10;;;;;;;;;;5025147;28;20363;-71
2022/09/29 07:57:11;;;;;;;14.20;11.37;;;;;;;;;;5022072;28;20551;-71
2022/09/29 07:59:36;;;;;;;12.57;10.30;;;;;;;;;;5025009;28;20343;-71
2022/09/29 08:02:03;;;;;;;14.90;10.53;;;;;;;;;;5025510;28;20269;-71
2022/09/29 08:04:28;;;;;;;13.53;10.40;;;;;;;;;;5025153;28;20610;-71
2022/09/29 08:06:53;;;;;;;11.80;9.80;;;;;;;;;;5030181;28;20254;-72
2022/09/29 08:09:18;;;;;;;11.47;10.03;;;;;;;;;;5020429;28;20178;-72
2022/09/29 08:11:43;;;;;;;14.10;10.38;;;;;;;;;;5024256;28;20232;-71
2022/09/29 08:14:10;;;;;;;11.13;10.02;;;;;;;;;;5025847;28;20872;-72
2022/09/29 08:16:35;;;;;;;12.02;9.93;;;;;;;;;;5031355;28;20256;-71
2022/09/29 08:19:01;;;;;;;12.32;10.38;;;;;;;;;;5022385;28;20254;-71
2022/09/29 08:21:26;;;;;;;10.93;9.15;;;;;;;;;;5027026;28;20183;-72
2022/09/29 08:23:52;;;;;;;10.18;9.18;;;;;;;;;;5017523;28;20214;-71
2022/09/29 08:26:18;;;;;;;12.98;9.82;;;;;;;;;;5023438;28;20209;-71
2022/09/29 08:28:44;;;;;;;9.70;8.30;;;;;;;;;;5026010;28;20178;-71
2022/09/29 08:31:20;;;;;;;10.45;8.77;;;;;;;;;;5024275;28;20609;-72
2022/09/29 08:33:49;;;;;;;9.95;8.70;;;;;;;;;;5019086;28;20202;-71
2022/09/29 08:36:15;;;;;;;11.43;8.50;;;;;;;;;;5015618;28;20175;-71
2022/09/29 08:38:44;;;;;;;9.77;8.77;;;;;;;;;;5023933;28;20198;-71
2022/09/29 08:41:19;;;;;;;12.35;8.82;;;;;;;;;;5018796;28;20267;-69
2022/09/29 08:43:45;;;;;;;9.15;8.15;;;;;;;;;;5022497;28;20200;-71
2022/09/29 08:46:23;;;;;;;10.43;8.93;;;;;;;;;;5022130;28;20599;-69
2022/09/29 08:48:49;;;;;;;10.07;9.00;;;;;;;;;;5023380;28;20196;-69
2022/09/29 08:51:41;;;;;;;10.30;9.25;;;;;;;;;;5026872;28;20178;-69
2022/09/29 08:54:08;;;;;;;10.10;8.98;;;;;;;;;;5013518;28;20214;-71
2022/09/29 08:56:34;;;;;;;10.77;8.30;;;;;;;;;;5030982;28;20167;-69
2022/09/29 08:58:59;;;;;;;11.77;9.43;;;;;;;;;;5025284;28;20181;-72
2022/09/29 09:01:30;;;;;;;9.35;8.30;;;;;;;;;;5029727;28;20257;-70
2022/09/29 09:03:58;;;;;;;10.52;9.25;;;;;;;;;;5026351;28;20557;-72
2022/09/29 09:06:42;;;;;;;9.85;8.30;;;;;;;;;;5012834;28;20688;-71
2022/09/29 09:09:13;;;;;;;9.00;7.60;;;;;;;;;;5025050;28;20174;-71
2022/09/29 09:11:41;;;;;;;8.60;7.15;;;;;;;;;;5027221;28;20166;-70
2022/09/29 09:14:06;;;;;;;7.93;7.03;;;;;;;;;;5025370;28;20198;-70
2022/09/29 09:16:38;;;;;;;9.88;7.28;;;;;;;;;;5024987;28;20186;-71
2022/09/29 09:19:11;;;;;;;8.23;7.18;;;;;;;;;;5024062;28;20175;-70
2022/09/29 09:21:40;;;;;;;7.65;6.57;;;;;;;;;;5020661;28;20187;-68
2022/09/29 09:24:14;;;;;;;7.78;7.03;;;;;;;;;;5021681;28;20195;-71
2022/09/29 09:26:43;;;;;;;7.97;7.18;;;;;;;;;;5020697;28;20659;-71
2022/09/29 09:29:28;;;;;;;10.25;8.02;;;;;;;;;;5024399;28;20194;-71
2022/09/29 09:32:02;;;;;;;8.25;7.45;;;;;;;;;;5014973;28;20183;-71
2022/09/29 09:34:34;;;;;;;8.52;6.90;;;;;;;;;;5023573;28;20214;-71
2022/09/29 09:37:02;;;;;;;10.48;8.70;;;;;;;;;;5018165;28;20481;-70
2022/09/29 09:39:43;;;;;;;7.88;7.05;;;;;;;;;;5021659;28;20586;-70
2022/09/29 09:42:21;;;;;;;9.15;7.43;;;;;;;;;;5003346;28;20202;-71
2022/09/29 09:44:56;;;;;;;9.27;7.93;;;;;;;;;;5023196;28;20219;-71
2022/09/29 09:47:25;;;;;;;8.32;7.38;;;;;;;;;;5016099;28;20174;-71
2022/09/29 09:50:10;;;;;;;7.75;6.95;;;;;;;;;;5025462;28;20225;-71
2022/09/29 09:52:39;;;;;;;7.53;6.78;;;;;;;;;;5019287;28;20201;-71
2022/09/29 09:55:05;;;;;;;6.28;5.68;;;;;;;;;;5017924;28;20191;-71
2022/09/29 09:57:51;;;;;;;7.90;6.20;;;;;;;;;;5024777;28;20183;-71
2022/09/29 10:00:24;;;;;;;8.13;6.28;;;;;;;;;;5016581;28;20557;-71
2022/09/29 10:02:50;;;;;;;9.48;6.03;;;;;;;;;;5017409;28;20198;-71
2022/09/29 10:05:17;;;;;;;13.70;5.75;;;;;;;;;;5025937;28;20178;-71
2022/09/29 10:07:42;;;;;;;6.47;4.93;;;;;;;;;;5023580;28;20173;-71
2022/09/29 10:10:14;;;;;;;5.03;4.53;;;;;;;;;;5027864;28;20262;-71
2022/09/29 10:12:39;;;;;;;6.70;5.45;;;;;;;;;;5029259;28;20201;-71
2022/09/29 10:15:11;;;;;;;6.73;5.20;;;;;;;;;;5020436;28;20211;-71
2022/09/29 10:17:38;;;;;;;7.03;5.70;;;;;;;;;;5025780;28;20428;-71
2022/09/29 10:20:05;;;;;;;5.10;4.60;;;;;;;;;;5022901;28;20174;-71
2022/09/29 10:22:31;;;;;;;5.90;4.18;;;;;;;;;;5016828;28;20198;-71
2022/09/29 10:25:11;;;;;;;5.65;4.68;;;;;;;;;;5022837;28;20557;-72
2022/09/29 10:27:40;;;;;;;4.10;3.63;;;;;;;;;;5018242;28;20652;-72
2022/09/29 10:30:14;;;;;;;4.65;4.07;;;;;;;;;;5022333;28;20185;-71
2022/09/29 10:32:42;;;;;;;4.75;2.80;;;;;;;;;;5015758;28;20698;-71
2022/09/29 10:35:13;;;;;;;4.90;3.90;;;;;;;;;;5023236;28;20198;-71
2022/09/29 10:37:40;;;;;;;3.80;3.25;;;;;;;;;;5006370;28;20224;-71
2022/09/29 10:40:16;;;;;;;3.05;1.95;;;;;;;;;;5022398;28;20645;-71
2022/09/29 10:42:45;;;;;;;3.72;2.97;;;;;;;;;;5022525;28;20252;-72
2022/09/29 10:45:10;;;;;;;5.05;3.38;;;;;;;;;;5007031;28;20216;-71
2022/09/29 10:47:36;;;;;;;4.63;4.22;;;;;;;;;;5026424;28;20178;-71
2022/09/29 10:50:17;;;;;;;6.82;4.22;;;;;;;;;;5029565;28;20204;-71
2022/09/29 10:52:52;;;;;;;5.18;4.22;;;;;;;;;;5025041;28;20212;-70
2022/09/29 10:55:20;;;;;;;4.50;2.50;;;;;;;;;;5013704;28;20415;-71
2022/09/29 10:57:46;;;;;;;4.63;3.30;;;;;;;;;;5023575;28;20195;-71
2022/09/29 11:00:25;;;;;;;3.33;3.00;;;;;;;;;;5011324;28;20174;-70
2022/09/29 11:02:52;;;;;;;3.45;3.15;;;;;;;;;;5023833;28;20198;-71
2022/09/29 11:05:20;;;;;;;4.00;3.60;;;;;;;;;;5026972;28;20704;-70
2022/09/29 11:07:46;;;;;;;6.70;4.93;;;;;;;;;;5029480;28;20202;-70
2022/09/29 11:10:28;;;;;;;4.28;3.80;;;;;;;;;;5022188;28;20210;-71
2022/09/29 11:12:59;;;;;;;5.13;4.28;;;;;;;;;;5027964;28;20216;-71
2022/09/29 11:15:28;;;;;;;5.57;4.30;;;;;;;;;;5028865;28;20296;-70
2022/09/29 11:17:55;;;;;;;5.72;4.47;;;;;;;;;;5022815;28;20175;-70
2022/09/29 11:20:22;;;;;;;5.18;4.68;;;;;;;;;;5025242;28;20171;-71
2022/09/29 11:22:53;;;;;;;5.82;4.68;;;;;;;;;;5024555;28;20206;-70
2022/09/29 11:25:37;;;;;;;6.50;4.93;;;;;;;;;;5001066;28;20189;-72
2022/09/29 11:28:05;;;;;;;5.38;4.57;;;;;;;;;;5023308;28;20180;-72
2022/09/29 11:30:52;;;;;;;5.22;4.22;;;;;;;;;;5025590;28;20396;-72
2022/09/29 11:33:17;;;;;;;3.95;3.58;;;;;;;;;;5011558;28;20300;-72
2022/09/29 11:36:01;;;;;;;3.90;3.50;;;;;;;;;;5027241;28;20226;-73
2022/09/29 11:38:41;;;;;;;4.43;4.03;;;;;;;;;;5020049;28;20430;-71
2022/09/29 11:41:18;;;;;;;6.45;4.28;;;;;;;;;;5024730;28;20179;-72
2022/09/29 11:43:46;;;;;;;3.50;3.10;;;;;;;;;;5026201;28;20190;-72
2022/09/29 11:46:24;;;;;;;3.35;3.05;;;;;;;;;;5026901;28;20171;-71
2022/09/29 11:49:10;;;;;;;2.90;2.70;;;;;;;;;;5027422;28;20166;-72
2022/09/29 11:51:44;;;;;;;3.30;2.83;;;;;;;;;;5033252;28;20174;-72
2022/09/29 11:54:32;;;;;;;3.17;2.97;;;;;;;;;;5026295;28;20194;-72
2022/09/29 11:57:24;;;;;;;4.22;3.03;;;;;;;;;;5013247;28;20198;-71
2022/09/29 11:59:58;;;;;;;4.80;3.63;;;;;;;;;;5025338;28;20712;-72
2022/09/29 12:02:37;;;;;;;3.45;2.80;;;;;;;;;;5013523;28;20204;-72
2022/09/29 12:05:24;;;;;;;3.58;3.00;;;;;;;;;;5032230;28;20651;-71
2022/09/29 12:08:04;;;;;;;3.15;2.45;;;;;;;;;;5020274;28;20205;-72
2022/09/29 12:10:36;;;;;;;2.15;1.98;;;;;;;;;;5026972;28;20557;-72
2022/09/29 12:13:08;;;;;;;2.17;1.98;;;;;;;;;;5025719;28;20206;-72
2022/09/29 12:15:51;;;;;;;2.85;2.63;;;;;;;;;;5030019;28;20761;-72
2022/09/29 12:18:38;;;;;;;3.63;2.53;;;;;;;;;;5023554;28;20201;-71
2022/09/29 12:21:05;;;;;;;2.90;2.10;;;;;;;;;;5013623;28;20190;-72
2022/09/29 12:23:31;;;;;;;2.78;2.38;;;;;;;;;;5003971;28;20213;-72
2022/09/29 12:26:01;;;;;;;2.90;2.70;;;;;;;;;;5027676;28;20664;-72
2022/09/29 12:28:34;;;;;;;3.60;2.58;;;;;;;;;;5013145;28;20178;-72
2022/09/29 12:31:02;;;;;;;3.35;2.00;;;;;;;;;;5023024;28;20245;-72
2022/09/29 12:33:59;;;;;;;2.72;1.98;;;;;;;;;;5025687;28;20198;-72
2022/09/29 12:36:44;;;;;;;2.75;2.20;;;;;;;;;;4983426;28;20248;-72
2022/09/29 12:39:34;;;;;;;2.65;1.58;;;;;;;;;;5015302;28;20264;-71
2022/09/29 12:42:12;;;;;;;2.25;1.60;;;;;;;;;;5020400;28;20187;-72
2022/09/29 12:44:43;;;;;;;2.58;1.20;;;;;;;;;;5013667;28;20721;-72
2022/09/29 12:47:15;;;;;;;3.20;1.30;;;;;;;;;;5032747;28;20190;-71
2022/09/29 12:49:56;;;;;;;2.35;2.05;;;;;;;;;;5032961;28;20624;-71
2022/09/29 12:52:25;;;;;;;2.00;1.63;;;;;;;;;;5025242;28;20198;-70
2022/09/29 12:54:54;;;;;;;2.28;2.00;;;;;;;;;;5022635;28;20194;-71
2022/09/29 12:57:21;;;;;;;2.20;1.80;;;;;;;;;;5024495;28;20257;-71
2022/09/29 13:00:01;;;;;;;1.63;1.52;;;;;;;;;;5026588;28;20597;-72
2022/09/29 13:02:29;;;;;;;1.90;1.67;;;;;;;;;;5029731;28;20230;-71
2022/09/29 13:04:54;;;;;;;2.28;1.40;;;;;;;;;;5033277;28;20178;-71
2022/09/29 13:07:28;;;;;;;1.63;1.43;;;;;;;;;;5032889;28;20182;-71
2022/09/29 13:09:59;;;;;;;2.15;1.80;;;;;;;;;;5026036;28;20410;-71
2022/09/29 13:12:34;;;;;;;1.60;1.50;;;;;;;;;;5030411;28;20753;-71
2022/09/29 13:15:11;;;;;;;2.58;1.55;;;;;;;;;;5029160;28;20217;-72
2022/09/29 13:17:39;;;;;;;1.95;1.50;;;;;;;;;;5027126;28;20301;-71
2022/09/29 13:20:20;;;;;;;2.92;1.65;;;;;;;;;;5019092;28;20227;-71
2022/09/29 13:23:10;;;;;;;2.35;1.60;;;;;;;;;;5017023;28;20263;-71
2022/09/29 13:25:43;;;;;;;1.75;1.65;;;;;;;;;;5022133;28;20174;-71
2022/09/29 13:28:22;;;;;;;2.85;1.52;;;;;;;;;;5021398;28;20653;-71
2022/09/29 13:30:48;;;;;;;4.40;1.65;;;;;;;;;;5008536;28;20595;-71
2022/09/29 13:33:23;;;;;;;3.67;2.13;;;;;;;;;;5020292;28;20239;-71
2022/09/29 13:35:49;;;;;;;1.40;1.30;;;;;;;;;;5023912;28;20197;-72
2022/09/29 13:38:20;;;;;;;1.85;1.33;;;;;;;;;;5027706;28;20179;-71
2022/09/29 13:41:03;;;;;;;2.17;1.80;;;;;;;;;;5023297;28;20204;-71
2022/09/29 13:43:38;;;;;;;1.60;1.23;;;;;;;;;;5028908;28;20285;-71
2022/09/29 13:46:22;;;;;;;1.30;1.20;;;;;;;;;;5013989;28;20245;-71
2022/09/29 13:48:52;;;;;;;1.90;1.45;;;;;;;;;;5024974;28;20544;-71
2022/09/29 13:51:26;;;;;;;1.63;1.40;;;;;;;;;;5027655;28;20663;-71
2022/09/29 13:54:15;;;;;;;1.98;1.30;;;;;;;;;;5025108;28;20544;-71
2022/09/29 13:56:40;;;;;;;1.77;1.20;;;;;;;;;;4999561;28;20186;-72
2022/09/29 13:59:14;;;;;;;2.47;1.93;;;;;;;;;;5024240;28;20663;-71
2022/09/29 14:01:39;;;;;;;1.77;1.65;;;;;;;;;;5025861;28;20398;-71
2022/09/29 14:04:23;;;;;;;1.98;1.50;;;;;;;;;;5022507;28;20261;-71
2022/09/29 14:06:49;;;;;;;1.90;1.48;;;;;;;;;;5017109;28;20674;-72
2022/09/29 14:09:18;;;;;;;1.70;1.38;;;;;;;;;;5026989;28;20179;-71
2022/09/29 14:11:48;;;;;;;2.20;1.52;;;;;;;;;;5017308;28;20181;-71
2022/09/29 14:14:33;;;;;;;2.10;1.50;;;;;;;;;;5005620;28;20623;-72
2022/09/29 14:17:14;;;;;;;2.00;1.67;;;;;;;;;;5022705;28;20182;-71
2022/09/29 14:19:48;;;;;;;2.22;1.73;;;;;;;;;;5021854;28;20262;-71
2022/09/29 14:22:31;;;;;;;2.08;1.40;;;;;;;;;;5022454;28;20201;-71
2022/09/29 14:25:17;;;;;;;1.98;1.40;;;;;;;;;;5018729;28;20640;-71
2022/09/29 14:28:02;;;;;;;2.30;1.92;;;;;;;;;;5016101;28;20270;-72
2022/09/29 14:30:34;;;;;;;3.17;2.13;;;;;;;;;;5007068;28;20231;-71
2022/09/29 14:33:01;;;;;;;3.38;2.80;;;;;;;;;;5022357;28;20205;-71
2022/09/29 14:35:26;;;;;;;4.20;2.90;;;;;;;;;;5027686;28;20198;-71
2022/09/29 14:37:57;;;;;;;3.00;2.70;;;;;;;;;;5023584;28;20175;-71
2022/09/29 14:40:29;;;;;;;4.45;3.15;;;;;;;;;;5013267;28;20453;-72
2022/09/29 14:43:14;;;;;;;2.70;2.38;;;;;;;;;;5027758;28;20190;-71
2022/09/29 14:54:22;;;;;;;3.40;2.72;;;;;;;;;;5021077;28;20301;-71
2022/09/29 14:56:48;;;;;;;3.95;1.95;;;;;;;;;;5023295;28;20648;-72
2022/09/29 14:59:26;;;;;;;3.45;2.10;;;;;;;;;;5029087;28;20208;-72